Arcata, California
Current Conditions -  °F | °C
As of 7:53 AM on Thursday 29 Jan 2015 (Local Time) from KACV Reporting Station
Few Clouds Few Clouds  
Wind Chill: 40°   Ceiling: Unl
Heat Index: 43°   Visibility: 10mi
Dew Point: 42°   Wind: 5mph
Humidity: 97%   Direction: 100°E
Pressure: 30.21"   Gusts: NA
Location:  40.87°N, 124.08°W
Report Text: KACV 291553Z AUTO 10004KT 10SM FEW008 06/06 A3021 RMK AO2 SLP236 T00610056
Loading
Personal Weather Stations






























Interactive Weather Map New forecast layout! Learn more

10-Day Weather Forecast

Advertisements
Track Severe Weather on mobile